createdAt,value
2018-09-11T00:01:28.557Z,97.90
2018-09-11T00:03:57.934Z,96.90
2018-09-11T00:06:27.283Z,97.30
2018-09-11T00:08:56.639Z,99.50
2018-09-11T00:11:26.193Z,96.90
2018-09-11T00:13:55.544Z,98.20
2018-09-11T00:16:24.884Z,98.30
2018-09-11T00:18:54.232Z,99.20
2018-09-11T00:21:23.598Z,98.60
2018-09-11T00:23:52.952Z,98.70
2018-09-11T00:26:22.392Z,98.50
2018-09-11T00:28:51.993Z,98.20
2018-09-11T00:31:21.688Z,97.50
2018-09-11T00:33:51.125Z,97.90
2018-09-11T00:36:20.474Z,97.80
2018-09-11T00:38:49.852Z,97.70
2018-09-11T00:41:19.229Z,98.40
2018-09-11T00:43:48.632Z,98.20
2018-09-11T00:46:17.985Z,97.20
2018-09-11T00:48:47.338Z,97.30
2018-09-11T00:51:16.764Z,97.40
2018-09-11T00:53:46.080Z,96.90
2018-09-11T00:56:15.411Z,97.30
2018-09-11T00:58:44.730Z,97.70
2018-09-11T01:01:14.143Z,97.90
2018-09-11T01:03:43.495Z,97.80
2018-09-11T01:06:13.334Z,98.40
2018-09-11T01:08:42.683Z,98.40
2018-09-11T01:11:12.086Z,98.50
2018-09-11T01:13:41.443Z,99.90
2018-09-11T01:16:11.160Z,99.90
2018-09-11T01:18:40.601Z,99.90
2018-09-11T01:21:10.022Z,99.90
2018-09-11T01:23:39.384Z,99.90
2018-09-11T01:26:08.757Z,99.90
2018-09-11T01:28:38.157Z,99.90
2018-09-11T01:31:07.629Z,99.90
2018-09-11T01:33:36.968Z,99.90
2018-09-11T01:36:06.474Z,99.90
2018-09-11T01:38:36.063Z,99.90
2018-09-11T01:41:05.560Z,99.90
2018-09-11T01:43:34.904Z,99.90
2018-09-11T01:46:04.269Z,99.90
2018-09-11T01:48:33.617Z,99.90
2018-09-11T01:51:03.080Z,99.90
2018-09-11T01:53:32.413Z,99.90
2018-09-11T01:56:01.745Z,99.90
2018-09-11T01:58:31.101Z,99.90
2018-09-11T02:01:00.661Z,99.90
2018-09-11T02:03:30.010Z,99.90
2018-09-11T02:05:59.359Z,99.90
2018-09-11T02:08:28.772Z,99.90
2018-09-11T02:10:58.281Z,99.90
2018-09-11T02:13:27.644Z,99.90
2018-09-11T02:15:57.001Z,99.90
2018-09-11T02:18:26.350Z,99.90
2018-09-11T02:20:56.916Z,99.90
2018-09-11T02:23:26.259Z,99.90
2018-09-11T02:25:55.617Z,99.90
2018-09-11T02:28:24.956Z,99.90
2018-09-11T02:30:54.410Z,99.90
2018-09-11T02:33:23.889Z,99.90
2018-09-11T02:35:53.347Z,99.90
2018-09-11T02:38:22.649Z,99.90
2018-09-11T02:40:52.044Z,99.90
2018-09-11T02:43:21.426Z,99.90
2018-09-11T02:45:51.393Z,99.90
2018-09-11T02:48:20.742Z,99.90
2018-09-11T02:50:50.145Z,99.90
2018-09-11T02:53:19.489Z,99.90
2018-09-11T02:55:48.823Z,99.90
2018-09-11T02:58:18.276Z,99.90
2018-09-11T03:00:47.658Z,99.90
2018-09-11T03:03:17.004Z,99.90
2018-09-11T03:05:46.461Z,99.90
2018-09-11T03:08:15.809Z,99.90
2018-09-11T03:10:46.183Z,99.90
2018-09-11T03:13:15.601Z,99.90
2018-09-11T03:15:45.296Z,99.90
2018-09-11T03:18:14.657Z,99.90
2018-09-11T03:20:44.101Z,99.90
2018-09-11T03:23:13.480Z,99.90
2018-09-11T03:25:42.835Z,99.90
2018-09-11T03:28:12.186Z,99.90
2018-09-11T03:30:41.592Z,99.90
2018-09-11T03:33:10.941Z,99.90
2018-09-11T03:35:40.315Z,99.90
2018-09-11T03:38:09.692Z,99.90
2018-09-11T03:40:39.229Z,99.90
2018-09-11T03:43:08.728Z,99.90
2018-09-11T03:45:38.250Z,99.90
2018-09-11T03:48:07.636Z,99.90
2018-09-11T03:50:37.037Z,99.90
2018-09-11T03:53:06.806Z,99.90
2018-09-11T03:55:36.169Z,99.90
2018-09-11T03:58:05.587Z,99.90
2018-09-11T04:00:35.061Z,99.90
2018-09-11T04:03:04.442Z,99.90
2018-09-11T04:05:33.929Z,99.90
2018-09-11T04:08:03.286Z,99.90
2018-09-11T04:10:32.852Z,99.90
2018-09-11T04:13:02.189Z,99.90
2018-09-11T04:15:31.577Z,99.90
2018-09-11T04:18:00.980Z,99.90
2018-09-11T04:20:30.842Z,99.90
2018-09-11T04:23:00.612Z,99.90
2018-09-11T04:25:30.135Z,99.90
2018-09-11T04:27:59.996Z,99.90
2018-09-11T04:30:29.393Z,99.90
2018-09-11T04:32:58.740Z,99.90
2018-09-11T04:35:28.157Z,99.90
2018-09-11T04:37:57.977Z,99.90
2018-09-11T04:40:27.493Z,99.90
2018-09-11T04:42:57.024Z,99.90
2018-09-11T04:45:26.390Z,99.90
2018-09-11T04:47:55.764Z,99.90
2018-09-11T04:50:25.264Z,99.90
2018-09-11T04:52:55.835Z,99.90
2018-09-11T04:55:25.320Z,99.90
2018-09-11T04:57:54.741Z,99.90
2018-09-11T05:00:24.326Z,99.90
2018-09-11T05:02:53.809Z,99.90
2018-09-11T05:05:23.295Z,99.90
2018-09-11T05:07:53.218Z,99.90
2018-09-11T05:10:22.932Z,99.90
2018-09-11T05:12:52.452Z,99.90
2018-09-11T05:15:21.852Z,99.90
2018-09-11T05:17:51.393Z,99.90
2018-09-11T05:20:20.977Z,99.90
2018-09-11T05:22:50.990Z,99.90
2018-09-11T05:25:21.559Z,99.90
2018-09-11T05:27:51.564Z,99.90
2018-09-11T05:30:20.961Z,99.90
2018-09-11T05:32:50.307Z,99.90
2018-09-11T05:35:19.701Z,99.90
2018-09-11T05:37:49.448Z,99.90
2018-09-11T05:40:19.010Z,99.90
2018-09-11T05:42:48.557Z,99.90
2018-09-11T05:45:17.929Z,99.90
2018-09-11T05:47:47.392Z,99.90
2018-09-11T05:50:16.866Z,99.90
2018-09-11T05:52:46.818Z,99.90
2018-09-11T05:55:16.193Z,99.90
2018-09-11T05:57:46.210Z,99.90
2018-09-11T06:00:15.716Z,99.90
2018-09-11T06:02:45.077Z,99.90
2018-09-11T06:05:14.439Z,99.90
2018-09-11T06:07:44.447Z,99.90
2018-09-11T06:10:13.809Z,99.90
2018-09-11T06:12:43.140Z,99.90
2018-09-11T06:15:12.501Z,99.90
2018-09-11T06:17:41.848Z,99.90
2018-09-11T06:20:11.461Z,99.90
2018-09-11T06:22:41.400Z,99.90
2018-09-11T06:25:10.785Z,99.90
2018-09-11T06:27:41.324Z,99.90
2018-09-11T06:30:10.772Z,99.90
2018-09-11T06:32:40.114Z,99.90
2018-09-11T06:35:09.703Z,99.90
2018-09-11T06:37:39.824Z,99.90
2018-09-11T06:40:09.464Z,99.90
2018-09-11T06:42:38.888Z,99.90
2018-09-11T06:45:08.440Z,99.90
2018-09-11T06:47:38.022Z,99.90
2018-09-11T06:50:08.517Z,99.90
2018-09-11T06:52:39.824Z,99.90
2018-09-11T06:55:09.439Z,99.90
2018-09-11T06:57:39.019Z,99.90
2018-09-11T07:00:08.729Z,99.90
2018-09-11T07:02:38.363Z,99.90
2018-09-11T07:05:08.002Z,99.90
2018-09-11T07:07:37.547Z,99.90
2018-09-11T07:10:07.484Z,99.90
2018-09-11T07:12:36.970Z,99.90
2018-09-11T07:15:06.491Z,99.90
2018-09-11T07:17:35.880Z,99.90
2018-09-11T07:20:06.537Z,99.90
2018-09-11T07:22:35.879Z,99.90
2018-09-11T07:25:05.609Z,99.90
2018-09-11T07:27:35.190Z,99.90
2018-09-11T07:30:04.860Z,99.90
2018-09-11T07:32:34.502Z,99.90
2018-09-11T07:35:03.969Z,99.90
2018-09-11T07:37:33.381Z,99.90
2018-09-11T07:40:02.908Z,99.90
2018-09-11T07:42:32.336Z,99.90
2018-09-11T07:45:01.734Z,99.90
2018-09-11T07:47:31.236Z,99.90
2018-09-11T07:50:00.898Z,99.90
2018-09-11T07:52:30.523Z,99.90
2018-09-11T07:55:00.125Z,99.90
2018-09-11T07:57:29.677Z,99.90
2018-09-11T07:59:59.308Z,99.90
2018-09-11T08:02:28.862Z,99.90
2018-09-11T08:04:58.316Z,99.90
2018-09-11T08:07:27.976Z,99.90
2018-09-11T08:09:57.454Z,99.90
2018-09-11T08:12:26.900Z,99.90
2018-09-11T08:14:56.439Z,99.90
2018-09-11T08:17:25.895Z,99.90
2018-09-11T08:19:55.445Z,99.90
2018-09-11T08:22:25.079Z,99.90
2018-09-11T08:24:54.520Z,99.90
2018-09-11T08:27:24.031Z,99.90
2018-09-11T08:29:53.582Z,99.90
2018-09-11T08:32:23.064Z,99.90
2018-09-11T08:34:52.584Z,99.90
2018-09-11T08:37:22.116Z,99.90
2018-09-11T08:39:51.981Z,99.90
2018-09-11T08:42:21.376Z,99.90
2018-09-11T08:44:50.930Z,99.90
2018-09-11T08:47:20.469Z,99.90
2018-09-11T08:49:50.003Z,99.90
2018-09-11T08:52:19.411Z,99.70
2018-09-11T08:54:48.907Z,99.90
2018-09-11T08:57:18.466Z,98.50
2018-09-11T08:59:48.004Z,99.40
2018-09-11T09:02:17.508Z,98.70
2018-09-11T09:04:46.921Z,98.90
2018-09-11T09:07:16.312Z,98.30
2018-09-11T09:09:45.802Z,98.20
2018-09-11T09:12:15.636Z,97.00
2018-09-11T09:14:45.096Z,98.20
2018-09-11T09:17:14.552Z,97.50
2018-09-11T09:19:44.128Z,97.10
2018-09-11T09:22:13.692Z,96.20
2018-09-11T09:24:43.154Z,95.40
2018-09-11T09:27:12.735Z,96.00
2018-09-11T09:29:42.231Z,95.20
2018-09-11T09:32:11.788Z,94.90
2018-09-11T09:34:41.348Z,95.10
2018-09-11T09:37:11.480Z,93.90
2018-09-11T09:39:41.054Z,94.40
2018-09-11T09:42:10.642Z,93.50
2018-09-11T09:44:40.435Z,93.30
2018-09-11T09:47:09.860Z,93.00
2018-09-11T09:49:39.383Z,91.80
2018-09-11T09:52:08.942Z,94.20
2018-09-11T09:54:38.482Z,93.70
2018-09-11T09:57:08.032Z,93.20
2018-09-11T09:59:37.557Z,92.70
2018-09-11T10:02:12.388Z,92.70
2018-09-11T10:04:41.973Z,88.90
2018-09-11T10:07:11.427Z,89.70
2018-09-11T10:09:40.997Z,90.40
2018-09-11T10:12:10.505Z,91.60
2018-09-11T10:14:40.005Z,90.10
2018-09-11T10:17:10.539Z,90.10
2018-09-11T10:19:40.305Z,83.70
2018-09-11T10:22:09.808Z,80.30
2018-09-11T10:24:39.209Z,82.70
2018-09-11T10:27:09.020Z,84.70
2018-09-11T10:29:38.448Z,79.20
2018-09-11T10:32:08.140Z,70.30
2018-09-11T10:34:37.573Z,75.30
2018-09-11T10:37:07.047Z,73.30
2018-09-11T10:39:36.530Z,73.30
2018-09-11T10:42:06.037Z,73.70
2018-09-11T10:44:35.506Z,67.20
2018-09-11T10:47:05.028Z,66.80
2018-09-11T10:49:34.797Z,68.80
2018-09-11T10:52:04.370Z,65.60
2018-09-11T10:54:33.836Z,66.90
2018-09-11T10:57:03.285Z,67.10
2018-09-11T10:59:33.036Z,63.60
2018-09-11T11:02:02.606Z,65.00
2018-09-11T11:04:32.212Z,66.20
2018-09-11T11:07:01.776Z,63.00
2018-09-11T11:09:31.301Z,62.70
2018-09-11T11:12:00.894Z,64.30
2018-09-11T11:14:30.461Z,64.50
2018-09-11T11:17:00.076Z,65.30
2018-09-11T11:19:29.542Z,65.70
2018-09-11T11:21:59.436Z,63.20
2018-09-11T11:24:28.875Z,60.00
2018-09-11T11:26:58.400Z,60.00
2018-09-11T11:29:27.778Z,61.30
2018-09-11T11:31:57.285Z,57.70
2018-09-11T11:34:26.739Z,57.90
2018-09-11T11:36:56.418Z,56.30
2018-09-11T11:39:25.871Z,56.10
2018-09-11T11:41:55.472Z,56.20
2018-09-11T11:44:24.963Z,55.50
2018-09-11T11:46:54.520Z,54.70
2018-09-11T11:49:24.089Z,52.40
2018-09-11T11:51:53.743Z,52.60
2018-09-11T11:54:23.204Z,52.30
2018-09-11T11:56:52.718Z,50.00
2018-09-11T11:59:22.185Z,50.70
2018-09-11T12:01:51.708Z,48.80
2018-09-11T12:04:21.175Z,47.60
2018-09-11T12:06:50.582Z,47.50
2018-09-11T12:09:20.057Z,46.70
2018-09-11T12:11:49.722Z,48.40
2018-09-11T12:14:19.350Z,46.10
2018-09-11T12:16:48.866Z,45.10
2018-09-11T12:19:18.236Z,45.10
2018-09-11T12:21:47.609Z,44.80
2018-09-11T12:24:17.060Z,44.90
2018-09-11T12:26:46.709Z,46.00
2018-09-11T12:29:16.202Z,42.50
2018-09-11T12:31:45.769Z,43.40
2018-09-11T12:34:15.265Z,45.50
2018-09-11T12:36:44.830Z,45.90
2018-09-11T12:39:14.350Z,42.90
2018-09-11T12:41:44.041Z,44.00
2018-09-11T12:44:13.611Z,43.00
2018-09-11T12:46:43.379Z,42.50
2018-09-11T12:49:12.705Z,42.70
2018-09-11T12:51:43.328Z,44.00
2018-09-11T12:54:12.829Z,44.30
2018-09-11T12:56:42.329Z,43.00
2018-09-11T12:59:12.129Z,43.10
2018-09-11T13:01:41.653Z,43.20
2018-09-11T13:04:11.172Z,43.40
2018-09-11T13:06:40.746Z,42.50
2018-09-11T13:09:10.349Z,43.30
2018-09-11T13:11:39.844Z,41.60
2018-09-11T13:14:09.310Z,41.00
2018-09-11T13:16:38.873Z,40.90
2018-09-11T13:19:08.416Z,40.90
2018-09-11T13:21:38.088Z,41.40
2018-09-11T13:24:07.960Z,39.80
2018-09-11T13:26:37.685Z,40.00
2018-09-11T13:29:07.232Z,39.30
2018-09-11T13:31:40.556Z,37.70
2018-09-11T13:34:10.099Z,39.20
2018-09-11T13:36:39.725Z,38.90
2018-09-11T13:39:10.158Z,39.80
2018-09-11T13:41:39.590Z,40.70
2018-09-11T13:44:09.117Z,40.10
2018-09-11T13:46:38.601Z,38.70
2018-09-11T13:49:08.001Z,38.00
2018-09-11T13:51:37.492Z,39.60
2018-09-11T13:54:07.139Z,39.90
2018-09-11T13:56:36.550Z,38.50
2018-09-11T13:59:06.122Z,38.90
2018-09-11T14:01:35.717Z,39.10
2018-09-11T14:04:05.250Z,39.00
2018-09-11T14:06:34.790Z,38.30
2018-09-11T14:09:05.035Z,38.90
2018-09-11T14:11:34.521Z,39.10
2018-09-11T14:14:04.062Z,38.20
2018-09-11T14:16:33.499Z,38.80
2018-09-11T14:19:02.992Z,37.60
2018-09-11T14:21:32.591Z,38.00
2018-09-11T14:24:02.053Z,39.60
2018-09-11T14:26:31.794Z,40.30
2018-09-11T14:29:01.279Z,39.60
2018-09-11T14:31:30.841Z,38.70
2018-09-11T14:34:00.678Z,38.20
2018-09-11T14:36:30.162Z,39.20
2018-09-11T14:38:59.537Z,39.70
2018-09-11T14:41:29.045Z,38.30
2018-09-11T14:43:58.537Z,38.20
2018-09-11T14:46:27.891Z,38.30
2018-09-11T14:48:57.353Z,36.90
2018-09-11T14:51:26.857Z,38.50
2018-09-11T14:53:56.405Z,37.60
2018-09-11T14:56:25.958Z,37.30
2018-09-11T14:58:55.499Z,38.10
2018-09-11T15:01:25.163Z,38.30
2018-09-11T15:03:54.636Z,38.30
2018-09-11T15:06:24.167Z,40.00
2018-09-11T15:08:53.963Z,41.10
2018-09-11T15:11:23.493Z,43.10
2018-09-11T15:13:52.933Z,45.10
2018-09-11T15:16:22.391Z,46.70
2018-09-11T15:18:51.925Z,43.90
2018-09-11T15:21:21.419Z,42.40
2018-09-11T15:23:51.038Z,43.50
2018-09-11T15:26:20.494Z,43.90
2018-09-11T15:28:50.021Z,45.30
2018-09-11T15:31:19.585Z,45.30
2018-09-11T15:33:49.481Z,47.80
2018-09-11T15:36:19.061Z,47.90
2018-09-11T15:38:48.501Z,47.90
2018-09-11T15:41:18.292Z,48.20
2018-09-11T15:43:47.972Z,49.30
2018-09-11T15:46:17.452Z,49.70
2018-09-11T15:48:46.879Z,49.60
2018-09-11T15:51:16.387Z,50.60
2018-09-11T15:53:45.884Z,49.30
2018-09-11T15:56:15.389Z,49.00
2018-09-11T15:58:44.864Z,49.50
2018-09-11T16:01:14.342Z,51.30
2018-09-11T16:03:44.709Z,51.50
2018-09-11T16:06:14.180Z,52.60
2018-09-11T16:08:43.675Z,52.50
2018-09-11T16:11:13.197Z,53.40
2018-09-11T16:13:42.684Z,53.70
2018-09-11T16:16:12.231Z,54.10
2018-09-11T16:18:41.662Z,54.80
2018-09-11T16:21:11.265Z,55.80
2018-09-11T16:23:40.719Z,55.70
2018-09-11T16:26:10.372Z,55.30
2018-09-11T16:28:40.064Z,55.00
2018-09-11T16:31:09.653Z,55.30
2018-09-11T16:33:39.144Z,55.60
2018-09-11T16:36:08.674Z,56.00
2018-09-11T16:38:38.181Z,56.80
2018-09-11T16:41:07.659Z,56.70
2018-09-11T16:43:37.381Z,56.60
2018-09-11T16:46:06.876Z,56.60
2018-09-11T16:48:36.403Z,56.80
2018-09-11T16:51:05.987Z,56.90
2018-09-11T16:53:35.477Z,57.50
2018-09-11T16:56:05.004Z,57.70
2018-09-11T16:58:34.559Z,58.30
2018-09-11T17:01:04.379Z,58.60
2018-09-11T17:03:33.781Z,59.40
2018-09-11T17:06:03.352Z,62.90
2018-09-11T17:08:32.958Z,66.70
2018-09-11T17:11:02.574Z,67.20
2018-09-11T17:13:32.076Z,70.60
2018-09-11T17:16:01.649Z,68.60
2018-09-11T17:18:31.302Z,68.40
2018-09-11T17:21:00.857Z,69.50
2018-09-11T17:23:30.407Z,68.20
2018-09-11T17:25:59.896Z,71.60
2018-09-11T17:28:29.386Z,69.90
2018-09-11T17:30:58.976Z,77.90
2018-09-11T17:33:28.477Z,83.60
2018-09-11T17:35:58.172Z,83.80
2018-09-11T17:38:27.604Z,84.80
2018-09-11T17:40:57.212Z,83.50
2018-09-11T17:43:26.729Z,81.40
2018-09-11T17:45:56.528Z,80.90
2018-09-11T17:48:26.094Z,82.30
2018-09-11T17:50:55.717Z,81.70
2018-09-11T17:53:25.237Z,83.00
2018-09-11T17:55:54.750Z,81.50
2018-09-11T17:58:24.228Z,82.40
2018-09-11T18:00:53.769Z,83.30
2018-09-11T18:03:23.308Z,84.40
2018-09-11T18:05:52.827Z,85.00
2018-09-11T18:08:22.295Z,88.40
2018-09-11T18:10:53.831Z,89.00
2018-09-11T18:13:23.296Z,88.40
2018-09-11T18:15:52.804Z,89.20
2018-09-11T18:18:22.306Z,89.80
2018-09-11T18:20:51.829Z,90.10
2018-09-11T18:23:21.385Z,90.20
2018-09-11T18:25:50.997Z,90.10
2018-09-11T18:28:20.516Z,90.30
2018-09-11T18:30:50.272Z,89.00
2018-09-11T18:33:19.848Z,90.30
2018-09-11T18:35:49.398Z,89.30
2018-09-11T18:38:18.937Z,90.10
2018-09-11T18:40:48.420Z,90.20
2018-09-11T18:43:17.888Z,90.40
2018-09-11T18:45:47.417Z,88.70
2018-09-11T18:48:16.949Z,89.10
2018-09-11T18:50:46.560Z,88.80
2018-09-11T18:53:16.025Z,88.10
2018-09-11T18:55:45.822Z,87.70
2018-09-11T18:58:15.241Z,87.40
2018-09-11T19:00:44.884Z,89.20
2018-09-11T19:03:14.354Z,89.90
2018-09-11T19:05:43.856Z,90.40
2018-09-11T19:08:13.416Z,90.40
2018-09-11T19:10:44.068Z,92.10
2018-09-11T19:13:13.484Z,91.10
2018-09-11T19:15:43.021Z,89.60
2018-09-11T19:18:12.509Z,90.60
2018-09-11T19:20:41.985Z,91.20
2018-09-11T19:23:11.401Z,92.20
2018-09-11T19:25:40.943Z,91.80
2018-09-11T19:28:10.373Z,93.60
2018-09-11T19:30:40.968Z,93.20
2018-09-11T19:33:10.478Z,94.30
2018-09-11T19:35:39.923Z,94.50
2018-09-11T19:38:09.885Z,94.50
2018-09-11T19:40:39.413Z,95.00
2018-09-11T19:43:08.928Z,94.10
2018-09-11T19:45:38.453Z,94.60
2018-09-11T19:48:07.941Z,93.50
2018-09-11T19:50:37.655Z,94.10
2018-09-11T19:53:07.053Z,95.30
2018-09-11T19:55:36.554Z,94.90
2018-09-11T19:58:06.069Z,95.20
2018-09-11T20:00:35.591Z,95.30
2018-09-11T20:03:05.343Z,93.80
2018-09-11T20:05:34.885Z,94.30
2018-09-11T20:08:04.406Z,95.00
2018-09-11T20:10:33.929Z,94.50
2018-09-11T20:13:03.432Z,95.10
2018-09-11T20:15:32.968Z,94.40
2018-09-11T20:18:02.423Z,94.50
2018-09-11T20:20:31.905Z,95.30
2018-09-11T20:23:01.433Z,96.70
2018-09-11T20:25:31.061Z,97.00
2018-09-11T20:28:00.509Z,98.50
2018-09-11T20:30:30.470Z,98.80
2018-09-11T20:33:00.718Z,98.10
2018-09-11T20:35:30.089Z,97.70
2018-09-11T20:37:59.473Z,97.40
2018-09-11T20:40:28.930Z,97.90
2018-09-11T20:42:58.345Z,97.10
2018-09-11T20:45:27.762Z,97.70
2018-09-11T20:47:57.253Z,98.90
2018-09-11T20:50:26.986Z,98.70
2018-09-11T20:52:56.301Z,99.10
2018-09-11T20:55:25.664Z,99.40
2018-09-11T20:57:55.004Z,99.30
2018-09-11T21:00:24.446Z,99.90
2018-09-11T21:02:53.792Z,99.90
2018-09-11T21:05:23.172Z,99.90
2018-09-11T21:07:52.547Z,99.90
2018-09-11T21:10:21.949Z,99.90
2018-09-11T21:12:51.300Z,99.90
2018-09-11T21:15:20.653Z,99.90
2018-09-11T21:17:50.004Z,99.90
2018-09-11T21:20:19.426Z,99.90
2018-09-11T21:22:48.758Z,99.90
2018-09-11T21:25:18.129Z,99.90
2018-09-11T21:27:47.469Z,99.90
2018-09-11T21:30:16.885Z,99.90
2018-09-11T21:32:46.243Z,99.90
2018-09-11T21:35:15.647Z,99.90
2018-09-11T21:37:45.310Z,99.90
2018-09-11T21:40:14.712Z,99.90
2018-09-11T21:42:44.096Z,99.90
2018-09-11T21:45:13.565Z,99.90
2018-09-11T21:47:42.887Z,99.90
2018-09-11T21:50:12.291Z,99.90
2018-09-11T21:52:41.798Z,99.90
2018-09-11T21:55:11.176Z,99.90
2018-09-11T21:57:40.500Z,99.90
2018-09-11T22:00:11.985Z,99.90
2018-09-11T22:02:41.304Z,99.90
2018-09-11T22:05:11.220Z,99.90
2018-09-11T22:07:40.566Z,99.90
2018-09-11T22:10:11.361Z,99.90
2018-09-11T22:12:41.265Z,99.90
2018-09-11T22:15:11.588Z,99.90
2018-09-11T22:17:40.921Z,99.90
2018-09-11T22:20:10.325Z,99.90
2018-09-11T22:22:39.678Z,99.90
2018-09-11T22:25:09.357Z,99.90
2018-09-11T22:27:38.688Z,99.90
2018-09-11T22:30:08.201Z,99.90
2018-09-11T22:32:37.529Z,99.90
2018-09-11T22:35:06.920Z,99.90
2018-09-11T22:37:36.244Z,99.90
2018-09-11T22:40:05.701Z,99.90
2018-09-11T22:42:35.769Z,99.90
2018-09-11T22:45:05.224Z,99.90
2018-09-11T22:47:34.567Z,99.90
2018-09-11T22:50:05.329Z,99.90
2018-09-11T22:52:34.681Z,99.90
2018-09-11T22:55:04.133Z,99.90
2018-09-11T22:57:33.569Z,99.90
2018-09-11T23:00:03.003Z,99.90
2018-09-11T23:02:32.361Z,99.90
2018-09-11T23:05:01.696Z,99.90
2018-09-11T23:07:30.997Z,99.90
2018-09-11T23:10:00.425Z,99.90
2018-09-11T23:12:29.796Z,99.90
2018-09-11T23:14:59.151Z,99.90
2018-09-11T23:17:28.497Z,99.90
2018-09-11T23:19:57.913Z,99.90
2018-09-11T23:22:27.257Z,99.90
2018-09-11T23:24:56.610Z,99.90
2018-09-11T23:27:25.960Z,99.90
2018-09-11T23:29:55.627Z,99.90
2018-09-11T23:32:25.087Z,99.90
2018-09-11T23:34:54.504Z,99.90
2018-09-11T23:37:23.856Z,99.90
2018-09-11T23:39:53.348Z,99.90
2018-09-11T23:42:22.697Z,99.90
2018-09-11T23:44:52.033Z,99.90
2018-09-11T23:47:21.491Z,99.90
2018-09-11T23:49:50.836Z,99.90
2018-09-11T23:52:20.312Z,99.90
2018-09-11T23:54:49.660Z,99.90
2018-09-11T23:57:18.998Z,99.90
2018-09-11T23:59:48.369Z,99.90
